KECS/ECS METAR and TAF weather

Enter ICAO airport designator
Station Type Date Time Source
KECS METAR 2019/06/16 07:15 UTC NOAA

KECS 160715Z AUTO 00000KT 10SM -RA OVC070 12/10 A3005 RMK AO2


Station Type Date Time Source
KECS Decoded METAR 2019/06/16 07:15 UTC NOAA

Station name not available
Jun 16, 2019 - 03:15 AM EDT / 2019.06.16 0715 UTC
Wind: Calm:0
Visibility: 10 mile(s):0
Sky conditions: overcast
Weather: light rain
Temperature: 53 F (12 C)
Dew Point: 50 F (10 C)
Relative Humidity: 87%
Pressure (altimeter): 30.05 in. Hg (1017 hPa)
ob: KECS 160715Z AUTO 00000KT 10SM -RA OVC070 12/10 A3005 RMK AO2
cycle: 7

Station Type Date Time Source
KECS TAF UTC NOAA

Error!

Example: see airport list